Flight Track Log - Related Links

Times and Time Zones

All times are in EDT time to prevent confusion due to time zone crossing. See the UAL6025 flight status page for this flight to view local times or setup timezone preferences in your user account.

Time Position Orientation Groundspeed Altitude Reporting Facility
EDT Latitude Longitude Course Direction KTS MPH feet Rate Location/Type
Wed 06:57:31 PM 38.9167 -77.5167 238° Southwest 184 212 2,100  Level Potomac TRACON
Wed 07:00:01 PM 38.7592 -77.5911 200° South 259 298 8,000 2,303 Climbing Washington Center
Wed 07:01:02 PM 38.6875 -77.6317 204° Southwest 276 318 10,200 1,770 Climbing Washington Center
Wed 07:02:03 PM 38.6014 -77.6797 204° Southwest 306 352 11,600 1,664 Climbing Washington Center
Wed 07:03:00 PM 38.8979 -78.1685 238° Southwest  Level Estimated
Wed 07:03:01 PM 38.5128 -77.7303 204° Southwest 337 388 13,500  Level Washington Center
Wed 07:04:01 PM 38.4528 -77.8292 232° Southwest 342 394 15,400 1,785 Climbing Washington Center
Wed 07:05:02 PM 38.3986 -77.9364 237° Southwest 350 403 17,100 1,574 Climbing Washington Center
Wed 07:06:03 PM 38.3444 -78.0406 236° Southwest 360 414 18,600 1,613 Climbing Washington Center
Wed 07:07:01 PM 38.2878 -78.1497 237° Southwest 365 420 20,300 1,714 Climbing Washington Center
Wed 07:08:02 PM 38.2292 -78.2561 235° Southwest 370 426 22,000 1,672 Climbing Washington Center
Wed 07:09:03 PM 38.1747 -78.3625 237° Southwest 370 426 23,700 1,686 Climbing Washington Center
Wed 07:10:03 PM 38.1200 -78.4686 237° Southwest 370 426 25,400 1,627 Climbing Washington Center
Wed 07:11:01 PM 38.0781 -78.5672 242° Southwest 358 412 26,900 1,563 Climbing Washington Center
Wed 07:12:02 PM 38.0047 -78.6567 224° Southwest 358 412 28,500 1,525 Climbing Washington Center
Wed 07:13:03 PM 37.9317 -78.7431 223° Southwest 358 412 30,000 1,537 Climbing Washington Center
Wed 07:14:03 PM 37.8500 -78.8344 221° Southwest 365 420 31,600 1,475 Climbing Washington Center
Wed 07:15:01 PM 37.7725 -78.9178 220° Southwest 365 420 32,900 1,322 Climbing Washington Center
Wed 07:16:01 PM 37.6994 -79.0011 222° Southwest 365 420 34,200 1,091 Climbing Washington Center
Wed 07:17:02 PM 37.6242 -79.0817 220° Southwest 365 420 35,100 836 Climbing Washington Center
Wed 07:18:03 PM 37.5675 -79.1603 228° Southwest 360 414 35,900 454 Climbing Washington Center
Wed 07:19:01 PM 37.5283 -79.2817 248° West 340 391 36,000 50 Climbing Washington Center
Wed 07:20:02 PM 37.4892 -79.4000 247° West 363 418 36,000  Level Washington Center
Wed 07:21:02 PM 37.4497 -79.5211 248° West 375 432 36,000  Level Washington Center
Wed 07:22:03 PM 37.4061 -79.6417 246° West 397 457 36,000  Level Washington Center
Wed 07:23:03 PM 37.3642 -79.7675 247° West 397 457 36,000  Level Washington Center
Wed 07:24:45 PM 37.2903 -79.9850 247° West 401 461 36,000  Level Atlanta Center
Wed 07:25:45 PM 37.2506 -80.1097 248° West 401 461 36,000  Level Atlanta Center
Wed 07:26:45 PM 37.2067 -80.2369 247° West 401 461 36,000  Level Atlanta Center
Wed 07:27:45 PM 37.1589 -80.3772 247° West 401 461 36,000  Level Atlanta Center
Wed 07:28:45 PM 37.1167 -80.5042 247° West 401 461 36,000  Level Atlanta Center
Wed 07:29:45 PM 37.0744 -80.6311 247° West 401 461 36,000  Level Atlanta Center
Wed 07:30:45 PM 37.0319 -80.7550 247° West 401 461 36,000  Level Atlanta Center
Wed 07:31:45 PM 36.9931 -80.8658 246° West 401 461 36,000  Level Atlanta Center
Wed 07:32:45 PM 36.9544 -80.9817 247° West 387 445 36,000  Level Atlanta Center
Wed 07:33:45 PM 36.9114 -81.0975 245° Southwest 376 433 36,000  Level Atlanta Center
Wed 07:34:45 PM 36.8725 -81.2183 248° West 376 433 36,000  Level Atlanta Center
Wed 07:35:45 PM 36.8275 -81.3444 246° West 376 433 36,000  Level Atlanta Center
Wed 07:36:45 PM 36.7861 -81.4597 246° West 371 427 36,000  Level Atlanta Center
Wed 07:37:45 PM 36.7528 -81.5644 248° West 371 427 36,000  Level Atlanta Center
Wed 07:38:45 PM 36.7114 -81.6850 247° West 382 440 36,000  Level Atlanta Center
Wed 07:39:45 PM 36.6678 -81.8053 246° West 382 440 36,000  Level Atlanta Center
Wed 07:40:45 PM 36.6261 -81.9228 246° West 376 433 36,000  Level Atlanta Center
Wed 07:41:45 PM 36.5864 -82.0375 247° West 376 433 36,000  Level Atlanta Center
Wed 07:42:45 PM 36.5422 -82.1550 245° Southwest 376 433 36,000  Level Atlanta Center
Wed 07:43:45 PM 36.5003 -82.2747 246° West 381 438 36,000  Level Atlanta Center
Wed 07:44:45 PM 36.4519 -82.4050 245° Southwest 381 438 36,000  Level Atlanta Center
Wed 07:45:45 PM 36.4078 -82.5297 246° West 381 438 36,000  Level Atlanta Center
Wed 07:46:45 PM 36.3633 -82.6517 246° West 386 444 36,000  Level Atlanta Center
Wed 07:47:45 PM 36.3186 -82.7761 246° West 386 444 36,000  Level Atlanta Center
Wed 07:48:45 PM 36.2739 -82.8953 245° Southwest 386 444 36,000  Level Atlanta Center
Wed 07:49:45 PM 36.2292 -83.0194 246° West 386 444 36,000  Level Atlanta Center
Wed 07:50:45 PM 36.1842 -83.1408 245° Southwest 386 444 36,000  Level Atlanta Center
Wed 07:51:45 PM 36.1392 -83.2647 246° West 391 450 36,000  Level Atlanta Center
Wed 07:52:45 PM 36.0942 -83.3861 245° Southwest 391 450 36,000  Level Atlanta Center
Wed 07:53:45 PM 36.0467 -83.5097 245° Southwest 396 456 36,000  Level Atlanta Center
Wed 07:54:45 PM 36.0094 -83.6153 246° West 396 456 36,000  Level Atlanta Center
Wed 07:55:45 PM 35.9661 -83.7333 246° West 386 444 36,000  Level Atlanta Center
Wed 07:56:45 PM 35.9225 -83.8489 245° Southwest 380 437 36,000  Level Atlanta Center
Wed 07:57:45 PM 35.9103 -83.9669 263° West 375 432 36,000  Level Atlanta Center
Wed 07:58:45 PM 35.9206 -84.0875 276° West 352 405 36,000  Level Atlanta Center
Wed 07:59:45 PM 35.9331 -84.2028 278° West 347 399 36,000  Level Atlanta Center
Wed 08:00:45 PM 35.9433 -84.3208 276° West 347 399 36,000  Level Atlanta Center
Wed 08:01:45 PM 35.9556 -84.4364 277° West 347 399 36,000  Level Atlanta Center
Wed 08:02:45 PM 35.9656 -84.5544 276° West 347 399 36,000  Level Atlanta Center
Wed 08:03:45 PM 35.9775 -84.6725 277° West 352 405 36,000  Level Atlanta Center
Wed 08:04:45 PM 35.9892 -84.7906 277° West 352 405 36,000  Level Atlanta Center
Wed 08:05:45 PM 36.0031 -84.9139 278° West 357 411 36,000  Level Atlanta Center
Wed 08:07:47 PM 36.0189 -85.1706 274° West 360 414 36,000  Level Memphis Center
Wed 08:08:47 PM 36.0300 -85.2906 277° West 360 414 36,000  Level Memphis Center
Wed 08:09:46 PM 36.0369 -85.4081 274° West 360 414 36,000  Level Memphis Center
Wed 08:10:47 PM 36.0478 -85.5281 276° West 360 414 36,000  Level Memphis Center
Wed 08:11:46 PM 36.0564 -85.6433 275° West 355 409 36,000  Level Memphis Center
Wed 08:12:46 PM 36.0650 -85.7633 275° West 350 403 36,000  Level Memphis Center
Wed 08:13:46 PM 36.0756 -85.8808 276° West 350 403 36,000  Level Memphis Center
Wed 08:14:46 PM 36.0839 -85.9961 275° West 344 396 36,000  Level Memphis Center
Wed 08:15:47 PM 36.0942 -86.1111 276° West 344 396 36,000  Level Memphis Center
Wed 08:16:47 PM 36.1003 -86.2289 274° West 344 396 36,000  Level Memphis Center
Wed 08:17:47 PM 36.1103 -86.3467 276° West 344 396 36,000  Level Memphis Center
Wed 08:18:47 PM 36.1183 -86.4617 275° West 344 396 36,000  Level Memphis Center
Wed 08:19:47 PM 36.1261 -86.5822 275° West 351 404 36,000  Level Memphis Center
Wed 08:20:47 PM 36.1336 -86.6925 275° West 351 404 36,000  Level Memphis Center
Wed 08:21:47 PM 36.1350 -86.8131 271° West 346 398 36,000  Level Memphis Center
Wed 08:22:46 PM 36.1342 -86.9364 270° West 353 406 36,000  Level Memphis Center
Wed 08:23:47 PM 36.1378 -87.0700 272° West 353 406 36,000  Level Memphis Center
Wed 08:24:47 PM 36.1389 -87.1908 271° West 358 412 36,000  Level Memphis Center
Wed 08:25:46 PM 36.1419 -87.3114 272° West 358 412 36,000  Level Memphis Center
Wed 08:26:47 PM 36.1428 -87.4322 271° West 358 412 36,000  Level Memphis Center
Wed 08:27:46 PM 36.1436 -87.5531 271° West 358 412 36,000  Level Memphis Center
Wed 08:28:47 PM 36.1442 -87.6736 270° West 358 412 36,000  Level Memphis Center
Wed 08:29:46 PM 36.1444 -87.7944 270° West 358 412 36,000  Level Memphis Center
Wed 08:30:46 PM 36.1447 -87.9128 270° West 351 404 36,000  Level Memphis Center
Wed 08:31:47 PM 36.1450 -88.0258 270° West 351 404 36,000  Level Memphis Center
Wed 08:32:47 PM 36.1450 -88.1414 270° West 351 404 36,000  Level Memphis Center
Wed 08:33:47 PM 36.1450 -88.2647 270° West 346 398 36,000  Level Memphis Center
Wed 08:34:47 PM 36.1450 -88.3856 270° West 352 405 36,000  Level Memphis Center
Wed 08:35:47 PM 36.1447 -88.5064 270° West 352 405 36,000  Level Memphis Center
Wed 08:36:46 PM 36.1444 -88.6325 270° West 357 411 36,000  Level Memphis Center
Wed 08:37:47 PM 36.1419 -88.7533 269° West 357 411 36,000  Level Memphis Center
Wed 08:38:46 PM 36.1414 -88.8767 270° West 357 411 36,000  Level Memphis Center
Wed 08:39:46 PM 36.1386 -89.0025 268° West 362 417 36,000  Level Memphis Center
Wed 08:40:46 PM 36.1358 -89.1364 269° West 362 417 36,000  Level Memphis Center
Wed 08:41:46 PM 36.1328 -89.2622 268° West 367 422 36,000  Level Memphis Center
Wed 08:42:46 PM 36.1319 -89.3881 270° West 367 422 36,000  Level Memphis Center
Wed 08:43:46 PM 36.1306 -89.5142 269° West 367 422 36,000  Level Memphis Center
Wed 08:44:46 PM 36.1314 -89.6400 271° West 367 422 36,000  Level Memphis Center
Wed 08:45:46 PM 36.1300 -89.7633 269° West 367 422 36,000  Level Memphis Center
Wed 08:46:46 PM 36.1286 -89.8867 269° West 367 422 36,000  Level Memphis Center
Wed 08:47:46 PM 36.1247 -90.0100 268° West 367 422 36,000  Level Memphis Center
Wed 08:48:46 PM 36.1250 -90.1361 270° West 367 422 36,000  Level Memphis Center
Wed 08:49:46 PM 36.1231 -90.2567 269° West 362 417 36,000  Level Memphis Center
Wed 08:50:46 PM 36.1211 -90.3800 269° West 362 417 36,000  Level Memphis Center
Wed 08:51:46 PM 36.1169 -90.5033 268° West 362 417 36,000  Level Memphis Center
Wed 08:52:46 PM 36.1144 -90.6242 269° West 362 417 36,000  Level Memphis Center
Wed 08:53:46 PM 36.1122 -90.7450 269° West 362 417 36,000  Level Memphis Center
Wed 08:54:46 PM 36.1097 -90.8656 269° West 362 417 36,000  Level Memphis Center
Wed 08:55:46 PM 36.1111 -90.9864 271° West 357 411 36,000  Level Memphis Center
Wed 08:56:46 PM 36.1125 -91.1019 271° West 352 405 36,000  Level Memphis Center
Wed 08:57:46 PM 36.1161 -91.2050 273° West 347 399 36,000  Level Memphis Center
Wed 08:58:46 PM 36.1236 -91.3231 275° West 347 399 36,000  Level Memphis Center
Wed 08:59:46 PM 36.1247 -91.4389 271° West 347 399 36,000  Level Memphis Center
Wed 09:00:46 PM 36.1278 -91.5544 272° West 347 399 36,000  Level Memphis Center
Wed 09:01:46 PM 36.1308 -91.6778 272° West 347 399 36,000  Level Memphis Center
Wed 09:02:46 PM 36.1378 -91.7989 274° West 347 399 36,000  Level Memphis Center
Wed 09:03:46 PM 36.1364 -91.9169 269° West 347 399 36,000  Level Memphis Center
Wed 09:04:46 PM 36.1433 -92.0328 274° West 347 399 36,000  Level Memphis Center
Wed 09:05:46 PM 36.1497 -92.1589 274° West 342 394 36,000  Level Memphis Center
Wed 09:06:46 PM 36.1522 -92.2797 272° West 348 400 36,000  Level Memphis Center
Wed 09:07:46 PM 36.1567 -92.3956 273° West 348 400 36,000  Level Memphis Center
Wed 09:08:46 PM 36.1567 -92.5164 270° West 348 400 36,000  Level Memphis Center
Wed 09:09:46 PM 36.1608 -92.6347 273° West 348 400 36,000  Level Memphis Center
Wed 09:10:46 PM 36.1647 -92.7581 272° West 348 400 36,000  Level Memphis Center
Wed 09:11:46 PM 36.1667 -92.8714 271° West 355 409 36,000  Level Memphis Center
Wed 09:12:46 PM 36.1686 -92.9869 271° West 360 414 36,000  Level Memphis Center
Wed 09:13:46 PM 36.1722 -93.1028 272° West 353 406 36,000  Level Memphis Center
Wed 09:14:46 PM 36.1736 -93.2264 271° West 353 406 36,000  Level Memphis Center
Wed 09:15:46 PM 36.1769 -93.3550 272° West 358 412 36,000  Level Memphis Center
Wed 09:16:46 PM 36.1781 -93.4758 271° West 364 419 36,000  Level Memphis Center
Wed 09:17:46 PM 36.1811 -93.5994 272° West 364 419 36,000 -350 Level Memphis Center
Wed 09:18:46 PM 36.1797 -93.7331 269° West 364 419 35,300 -1,050 Descending Memphis Center
Wed 09:19:46 PM 36.1825 -93.8592 272° West 364 419 33,900 -1,950 Descending Memphis Center
Wed 09:20:46 PM 36.1833 -93.9800 271° West 364 419 31,400 -2,550 Descending Memphis Center
Wed 09:21:46 PM 36.1858 -94.1061 271° West 364 419 28,800 -2,550 Descending Memphis Center
Wed 09:22:46 PM 36.1878 -94.2425 271° West 375 432 26,300 -2,400 Descending Memphis Center
Wed 09:23:46 PM 36.1897 -94.3764 271° West 388 447 24,000 -2,250 Descending Memphis Center
Wed 09:24:46 PM 36.1894 -94.5128 270° West 388 447 21,800 -2,200 Descending Memphis Center
Wed 09:25:46 PM 36.1914 -94.6389 271° West 383 441 19,600 -1,900 Descending Memphis Center
Wed 09:26:46 PM 36.1919 -94.7417 270° West 383 441 18,000 -2,122 Descending Memphis Center
Wed 09:28:13 PM 36.1944 -94.9275 271° West 333 383 14,400 -2,426 Descending Kansas City Center
Wed 09:29:07 PM 36.1958 -95.0242 271° West 314 361 12,300 -2,323 Descending Kansas City Center
Wed 09:29:15 PM 36.1958 -95.0375 270° West 320 368 12,000 -1,545 Descending Kansas City Center
Wed 09:30:13 PM 36.1964 -95.1433 270° West 295 339 10,600 -1,377 Descending Kansas City Center
Wed 09:30:16 PM 36.1958 -95.1408 105° East 307 353 10,600 -764 Level Kansas City Center
Wed 09:31:08 PM 36.1967 -95.2158 271° West 248 285 9,900 -787 Descending Kansas City Center
Wed 09:31:17 PM 36.1958 -95.2264 264° West 260 299 9,800 -1,111 Descending Kansas City Center
Wed 09:32:02 PM 36.1947 -95.2861 269° West 212 244 8,900 -1,180 Descending Kansas City Center
Wed 09:32:18 PM 36.1967 -95.3019 279° West 229 264 8,600 -1,377 Descending Kansas City Center
Wed 09:33:03 PM 36.1950 -95.3586 268° West 205 236 7,500 -1,279 Descending Kansas City Center
Wed 09:33:19 PM 36.1964 -95.3733 277° West 211 243 7,300 -1,279 Descending Kansas City Center
Wed 09:34:04 PM 36.2056 -95.4297 281° West 214 246 6,200 -1,355 Descending Kansas City Center
Wed 09:34:21 PM 36.2128 -95.4392 313° West 210 242 5,900 -1,000 Descending Kansas City Center
Wed 09:35:04 PM 36.2489 -95.4911 311° West 236 272 5,200 -787 Descending Kansas City Center
Wed 09:35:22 PM 36.2561 -95.4994 317° Northwest 227 261 5,100 -545 Descending Kansas City Center
Wed 09:35:59 PM 36.2867 -95.5403 313° West 238 274 4,700 -689 Descending Kansas City Center
Wed 09:36:23 PM 36.3022 -95.5606 314° West 234 269 4,400 -689 Descending Kansas City Center
Wed 09:37:00 PM 36.3364 -95.6036 315° West 244 281 4,000 -393 Descending Kansas City Center
Wed 09:37:24 PM 36.3506 -95.6200 317° Northwest 239 275 4,000  Level Kansas City Center
Wed 09:38:00 PM 36.3836 -95.6622 314° West 240 276 4,000  Level Kansas City Center
Wed 09:38:25 PM 36.3989 -95.6783 320° Northwest 239 275 4,000  Level Kansas City Center
Wed 09:39:07 PM 36.4325 -95.7206 315° West 222 255 4,000  Level Kansas City Center
Wed 09:39:26 PM 36.4433 -95.7319 320° Northwest 231 266 4,000 -100 Level Kansas City Center
Wed 09:40:07 PM 36.4683 -95.7706 309° West 180 207 3,900 -194 Descending Kansas City Center
Wed 09:40:28 PM 36.4722 -95.7842 290° West 211 243 3,800 -393 Descending Kansas City Center
Wed 09:41:08 PM 36.4667 -95.8228 260° West 144 166 3,500 -295 Descending Kansas City Center
Wed 09:41:29 PM 36.4611 -95.8258 204° Southwest 175 201 3,500 -111 Level Kansas City Center
Wed 09:42:02 PM 36.4417 -95.8494 224° Southwest 135 155 3,400 -295 Descending Kansas City Center
Wed 09:42:30 PM 36.4311 -95.8586 215° Southwest 153 176 3,200 -492 Descending Kansas City Center
Wed 09:43:03 PM 36.4036 -95.8700 198° South 154 177 2,900 -492 Descending Kansas City Center
Wed 09:43:31 PM 36.3853 -95.8686 177° South 152 175 2,700 -393 Descending Kansas City Center
Wed 09:44:04 PM 36.3617 -95.8728 188° South 148 170 2,500 -197 Descending Kansas City Center
Wed 09:44:32 PM 36.3442 -95.8719 178° South 148 170 2,500  Level Kansas City Center
Wed 09:44:58 PM 36.3283 -95.8744 187° South 147 169 2,500 -194 Level Kansas City Center
Wed 09:45:34 PM 36.3042 -95.8742 179° South 147 169 2,300 -492 Descending Kansas City Center
Wed 09:45:59 PM 36.2886 -95.8769 188° South 126 145 2,000 -492 Descending Kansas City Center
Wed 09:46:35 PM 36.2711 -95.8767 179° South 135 155 1,800 -500 Descending Kansas City Center
Wed 09:46:59 PM 36.2553 -95.8789 186° South 115 132 1,500 -590 Descending Kansas City Center
Wed 09:47:36 PM 36.2386 -95.8792 181° South 124 143 1,200 -486 Descending Kansas City Center

Login

Don't have an account? Register now (free) for customized features, flight alerts, and more!